sensor_id;sensor_type;location;lat;lon;timestamp;temperature;humidity
17364;DHT22;8799;43.594;13.526;2022-08-02T00:01:20;26.90;52.90
17364;DHT22;8799;43.594;13.526;2022-08-02T00:03:48;26.80;53.50
17364;DHT22;8799;43.594;13.526;2022-08-02T00:06:15;26.70;54.00
17364;DHT22;8799;43.594;13.526;2022-08-02T00:08:44;26.60;54.40
17364;DHT22;8799;43.594;13.526;2022-08-02T00:11:12;26.60;54.60
17364;DHT22;8799;43.594;13.526;2022-08-02T00:13:41;26.50;54.90
17364;DHT22;8799;43.594;13.526;2022-08-02T00:16:09;26.40;54.90
17364;DHT22;8799;43.594;13.526;2022-08-02T00:18:36;26.40;55.00
17364;DHT22;8799;43.594;13.526;2022-08-02T00:21:03;26.40;55.50
17364;DHT22;8799;43.594;13.526;2022-08-02T00:23:31;26.40;55.70
17364;DHT22;8799;43.594;13.526;2022-08-02T00:26:03;26.40;55.60
17364;DHT22;8799;43.594;13.526;2022-08-02T00:28:31;26.40;55.60
17364;DHT22;8799;43.594;13.526;2022-08-02T00:31:00;26.30;55.70
17364;DHT22;8799;43.594;13.526;2022-08-02T00:33:29;26.40;55.60
17364;DHT22;8799;43.594;13.526;2022-08-02T00:35:56;26.40;55.60
17364;DHT22;8799;43.594;13.526;2022-08-02T00:38:24;26.40;55.70
17364;DHT22;8799;43.594;13.526;2022-08-02T00:40:52;26.30;55.60
17364;DHT22;8799;43.594;13.526;2022-08-02T00:43:19;26.30;55.60
17364;DHT22;8799;43.594;13.526;2022-08-02T00:45:47;26.30;55.60
17364;DHT22;8799;43.594;13.526;2022-08-02T00:48:17;26.40;55.70
17364;DHT22;8799;43.594;13.526;2022-08-02T00:50:45;26.40;55.80
17364;DHT22;8799;43.594;13.526;2022-08-02T00:53:13;26.40;55.80
17364;DHT22;8799;43.594;13.526;2022-08-02T00:55:41;26.30;55.80
17364;DHT22;8799;43.594;13.526;2022-08-02T00:58:09;26.30;56.10
17364;DHT22;8799;43.594;13.526;2022-08-02T01:00:37;26.30;56.30
17364;DHT22;8799;43.594;13.526;2022-08-02T01:03:05;26.30;56.30
17364;DHT22;8799;43.594;13.526;2022-08-02T01:05:34;26.20;56.60
17364;DHT22;8799;43.594;13.526;2022-08-02T01:08:02;26.20;56.70
17364;DHT22;8799;43.594;13.526;2022-08-02T01:10:30;26.10;56.90
17364;DHT22;8799;43.594;13.526;2022-08-02T01:12:58;26.10;57.00
17364;DHT22;8799;43.594;13.526;2022-08-02T01:15:27;26.20;56.90
17364;DHT22;8799;43.594;13.526;2022-08-02T01:17:59;26.20;56.90
17364;DHT22;8799;43.594;13.526;2022-08-02T01:23:34;26.10;57.20
17364;DHT22;8799;43.594;13.526;2022-08-02T01:26:25;26.20;57.20
17364;DHT22;8799;43.594;13.526;2022-08-02T01:29:00;26.20;57.30
17364;DHT22;8799;43.594;13.526;2022-08-02T01:31:34;26.20;57.70
17364;DHT22;8799;43.594;13.526;2022-08-02T01:34:08;26.20;58.20
17364;DHT22;8799;43.594;13.526;2022-08-02T01:36:42;26.20;58.60
17364;DHT22;8799;43.594;13.526;2022-08-02T01:39:13;26.20;58.80
17364;DHT22;8799;43.594;13.526;2022-08-02T01:41:42;26.10;59.20
17364;DHT22;8799;43.594;13.526;2022-08-02T01:44:14;26.10;59.30
17364;DHT22;8799;43.594;13.526;2022-08-02T01:46:43;26.10;59.40
17364;DHT22;8799;43.594;13.526;2022-08-02T01:49:19;26.10;59.40
17364;DHT22;8799;43.594;13.526;2022-08-02T01:51:50;26.10;59.40
17364;DHT22;8799;43.594;13.526;2022-08-02T01:54:36;26.10;59.40
17364;DHT22;8799;43.594;13.526;2022-08-02T01:57:05;26.10;59.50
17364;DHT22;8799;43.594;13.526;2022-08-02T01:59:37;26.10;59.60
17364;DHT22;8799;43.594;13.526;2022-08-02T02:02:08;26.00;59.80
17364;DHT22;8799;43.594;13.526;2022-08-02T02:04:37;25.90;59.90
17364;DHT22;8799;43.594;13.526;2022-08-02T02:07:06;25.90;60.40
17364;DHT22;8799;43.594;13.526;2022-08-02T02:09:37;25.90;60.70
17364;DHT22;8799;43.594;13.526;2022-08-02T02:12:07;25.90;60.90
17364;DHT22;8799;43.594;13.526;2022-08-02T02:14:37;25.90;61.10
17364;DHT22;8799;43.594;13.526;2022-08-02T02:17:06;26.00;61.70
17364;DHT22;8799;43.594;13.526;2022-08-02T02:19:35;26.00;61.80
17364;DHT22;8799;43.594;13.526;2022-08-02T02:22:04;26.00;61.90
17364;DHT22;8799;43.594;13.526;2022-08-02T02:24:32;26.00;61.90
17364;DHT22;8799;43.594;13.526;2022-08-02T02:27:00;26.00;61.50
17364;DHT22;8799;43.594;13.526;2022-08-02T02:29:30;26.00;60.90
17364;DHT22;8799;43.594;13.526;2022-08-02T02:32:01;26.10;60.00
17364;DHT22;8799;43.594;13.526;2022-08-02T02:34:34;26.10;59.90
17364;DHT22;8799;43.594;13.526;2022-08-02T02:37:05;26.10;60.00
17364;DHT22;8799;43.594;13.526;2022-08-02T02:39:35;26.00;60.60
17364;DHT22;8799;43.594;13.526;2022-08-02T02:42:08;26.00;61.10
17364;DHT22;8799;43.594;13.526;2022-08-02T02:44:38;26.00;61.00
17364;DHT22;8799;43.594;13.526;2022-08-02T02:47:09;25.90;60.30
17364;DHT22;8799;43.594;13.526;2022-08-02T02:49:38;25.90;61.10
17364;DHT22;8799;43.594;13.526;2022-08-02T02:52:07;25.90;61.60
17364;DHT22;8799;43.594;13.526;2022-08-02T02:54:35;25.90;62.60
17364;DHT22;8799;43.594;13.526;2022-08-02T02:57:05;25.90;62.70
17364;DHT22;8799;43.594;13.526;2022-08-02T02:59:35;26.00;62.90
17364;DHT22;8799;43.594;13.526;2022-08-02T03:02:03;26.20;62.40
17364;DHT22;8799;43.594;13.526;2022-08-02T03:04:35;26.40;62.40
17364;DHT22;8799;43.594;13.526;2022-08-02T03:07:03;26.50;62.20
17364;DHT22;8799;43.594;13.526;2022-08-02T03:09:31;26.60;62.20
17364;DHT22;8799;43.594;13.526;2022-08-02T03:11:59;26.70;62.20
17364;DHT22;8799;43.594;13.526;2022-08-02T03:14:27;26.70;62.40
17364;DHT22;8799;43.594;13.526;2022-08-02T03:16:55;26.70;62.70
17364;DHT22;8799;43.594;13.526;2022-08-02T03:19:23;26.80;63.00
17364;DHT22;8799;43.594;13.526;2022-08-02T03:21:52;26.80;63.40
17364;DHT22;8799;43.594;13.526;2022-08-02T03:24:20;26.80;63.90
17364;DHT22;8799;43.594;13.526;2022-08-02T03:26:48;26.80;64.10
17364;DHT22;8799;43.594;13.526;2022-08-02T03:29:16;26.80;64.30
17364;DHT22;8799;43.594;13.526;2022-08-02T03:31:44;26.80;64.50
17364;DHT22;8799;43.594;13.526;2022-08-02T03:34:13;26.80;64.80
17364;DHT22;8799;43.594;13.526;2022-08-02T03:36:41;26.90;64.90
17364;DHT22;8799;43.594;13.526;2022-08-02T03:39:12;26.90;65.00
17364;DHT22;8799;43.594;13.526;2022-08-02T03:41:40;26.90;65.10
17364;DHT22;8799;43.594;13.526;2022-08-02T03:44:09;26.90;65.10
17364;DHT22;8799;43.594;13.526;2022-08-02T03:46:39;26.90;65.00
17364;DHT22;8799;43.594;13.526;2022-08-02T03:49:08;26.90;65.20
17364;DHT22;8799;43.594;13.526;2022-08-02T03:51:37;26.90;65.40
17364;DHT22;8799;43.594;13.526;2022-08-02T03:54:05;26.90;65.60
17364;DHT22;8799;43.594;13.526;2022-08-02T03:56:34;26.90;65.80
17364;DHT22;8799;43.594;13.526;2022-08-02T03:59:07;26.90;65.90
17364;DHT22;8799;43.594;13.526;2022-08-02T04:01:34;26.90;66.00
17364;DHT22;8799;43.594;13.526;2022-08-02T04:04:02;26.90;66.10
17364;DHT22;8799;43.594;13.526;2022-08-02T04:06:30;26.90;66.20
17364;DHT22;8799;43.594;13.526;2022-08-02T04:08:58;26.90;66.20
17364;DHT22;8799;43.594;13.526;2022-08-02T04:11:25;27.00;66.90
17364;DHT22;8799;43.594;13.526;2022-08-02T04:14:00;27.00;67.00
17364;DHT22;8799;43.594;13.526;2022-08-02T04:16:33;27.00;67.00
17364;DHT22;8799;43.594;13.526;2022-08-02T04:19:03;27.00;67.20
17364;DHT22;8799;43.594;13.526;2022-08-02T04:21:35;27.00;67.20
17364;DHT22;8799;43.594;13.526;2022-08-02T04:24:04;26.90;67.80
17364;DHT22;8799;43.594;13.526;2022-08-02T04:26:34;26.50;69.20
17364;DHT22;8799;43.594;13.526;2022-08-02T04:29:04;26.20;70.20
17364;DHT22;8799;43.594;13.526;2022-08-02T04:31:33;26.00;70.90
17364;DHT22;8799;43.594;13.526;2022-08-02T04:34:02;25.90;70.80
17364;DHT22;8799;43.594;13.526;2022-08-02T04:36:30;25.80;71.60
17364;DHT22;8799;43.594;13.526;2022-08-02T04:38:58;25.70;71.30
17364;DHT22;8799;43.594;13.526;2022-08-02T04:41:37;25.80;70.40
17364;DHT22;8799;43.594;13.526;2022-08-02T04:44:06;25.80;66.80
17364;DHT22;8799;43.594;13.526;2022-08-02T04:46:35;25.90;65.30
17364;DHT22;8799;43.594;13.526;2022-08-02T04:49:03;26.00;65.30
17364;DHT22;8799;43.594;13.526;2022-08-02T04:51:33;26.10;65.20
17364;DHT22;8799;43.594;13.526;2022-08-02T04:54:01;26.10;65.30
17364;DHT22;8799;43.594;13.526;2022-08-02T04:56:28;26.10;66.30
17364;DHT22;8799;43.594;13.526;2022-08-02T04:58:57;26.20;67.50
17364;DHT22;8799;43.594;13.526;2022-08-02T05:01:26;26.20;67.30
17364;DHT22;8799;43.594;13.526;2022-08-02T05:03:53;26.20;66.10
17364;DHT22;8799;43.594;13.526;2022-08-02T05:06:22;26.30;63.90
17364;DHT22;8799;43.594;13.526;2022-08-02T05:08:49;26.40;63.10
17364;DHT22;8799;43.594;13.526;2022-08-02T05:11:17;26.40;62.90
17364;DHT22;8799;43.594;13.526;2022-08-02T05:13:45;26.50;62.40
17364;DHT22;8799;43.594;13.526;2022-08-02T05:16:13;26.50;61.70
17364;DHT22;8799;43.594;13.526;2022-08-02T05:18:43;26.50;61.10
17364;DHT22;8799;43.594;13.526;2022-08-02T05:21:10;26.60;60.40
17364;DHT22;8799;43.594;13.526;2022-08-02T05:23:38;26.60;60.40
17364;DHT22;8799;43.594;13.526;2022-08-02T05:26:06;26.70;60.00
17364;DHT22;8799;43.594;13.526;2022-08-02T05:28:34;26.70;58.70
17364;DHT22;8799;43.594;13.526;2022-08-02T05:31:01;26.70;57.90
17364;DHT22;8799;43.594;13.526;2022-08-02T05:33:29;26.70;57.00
17364;DHT22;8799;43.594;13.526;2022-08-02T05:35:58;26.70;57.20
17364;DHT22;8799;43.594;13.526;2022-08-02T05:38:26;26.70;57.40
17364;DHT22;8799;43.594;13.526;2022-08-02T05:40:56;26.70;57.60
17364;DHT22;8799;43.594;13.526;2022-08-02T05:43:24;26.70;57.70
17364;DHT22;8799;43.594;13.526;2022-08-02T05:45:51;26.70;57.90
17364;DHT22;8799;43.594;13.526;2022-08-02T05:48:22;26.70;58.30
17364;DHT22;8799;43.594;13.526;2022-08-02T05:50:54;26.70;58.60
17364;DHT22;8799;43.594;13.526;2022-08-02T05:53:35;26.60;58.70
17364;DHT22;8799;43.594;13.526;2022-08-02T05:56:14;26.70;58.40
17364;DHT22;8799;43.594;13.526;2022-08-02T05:58:48;26.70;58.30
17364;DHT22;8799;43.594;13.526;2022-08-02T06:01:26;26.70;57.90
17364;DHT22;8799;43.594;13.526;2022-08-02T06:03:56;26.70;57.40
17364;DHT22;8799;43.594;13.526;2022-08-02T06:06:25;26.80;57.20
17364;DHT22;8799;43.594;13.526;2022-08-02T06:09:00;26.80;57.80
17364;DHT22;8799;43.594;13.526;2022-08-02T06:11:33;26.80;57.50
17364;DHT22;8799;43.594;13.526;2022-08-02T06:14:03;26.80;57.00
17364;DHT22;8799;43.594;13.526;2022-08-02T06:16:30;26.90;56.50
17364;DHT22;8799;43.594;13.526;2022-08-02T06:18:59;27.00;56.90
17364;DHT22;8799;43.594;13.526;2022-08-02T06:21:27;27.00;57.60
17364;DHT22;8799;43.594;13.526;2022-08-02T06:23:58;27.00;56.90
17364;DHT22;8799;43.594;13.526;2022-08-02T06:26:25;27.00;56.90
17364;DHT22;8799;43.594;13.526;2022-08-02T06:28:55;27.00;57.40
17364;DHT22;8799;43.594;13.526;2022-08-02T06:31:23;27.10;58.20
17364;DHT22;8799;43.594;13.526;2022-08-02T06:33:51;27.10;58.00
17364;DHT22;8799;43.594;13.526;2022-08-02T06:36:26;27.20;57.80
17364;DHT22;8799;43.594;13.526;2022-08-02T06:39:02;27.20;57.80
17364;DHT22;8799;43.594;13.526;2022-08-02T06:41:34;27.20;57.80
17364;DHT22;8799;43.594;13.526;2022-08-02T06:44:04;27.20;57.70
17364;DHT22;8799;43.594;13.526;2022-08-02T06:46:32;27.30;57.40
17364;DHT22;8799;43.594;13.526;2022-08-02T06:49:01;27.30;57.50
17364;DHT22;8799;43.594;13.526;2022-08-02T06:51:29;27.40;57.10
17364;DHT22;8799;43.594;13.526;2022-08-02T06:53:57;27.40;57.00
17364;DHT22;8799;43.594;13.526;2022-08-02T06:56:26;27.40;57.20
17364;DHT22;8799;43.594;13.526;2022-08-02T06:58:54;27.40;57.20
17364;DHT22;8799;43.594;13.526;2022-08-02T07:01:22;27.50;57.20
17364;DHT22;8799;43.594;13.526;2022-08-02T07:03:49;27.50;57.20
17364;DHT22;8799;43.594;13.526;2022-08-02T07:06:17;27.50;57.10
17364;DHT22;8799;43.594;13.526;2022-08-02T07:08:48;27.50;57.30
17364;DHT22;8799;43.594;13.526;2022-08-02T07:11:17;27.50;57.70
17364;DHT22;8799;43.594;13.526;2022-08-02T07:13:46;27.50;57.90
17364;DHT22;8799;43.594;13.526;2022-08-02T07:16:18;27.50;57.70
17364;DHT22;8799;43.594;13.526;2022-08-02T07:18:46;27.50;57.70
17364;DHT22;8799;43.594;13.526;2022-08-02T07:21:13;27.50;57.90
17364;DHT22;8799;43.594;13.526;2022-08-02T07:23:41;27.50;58.10
17364;DHT22;8799;43.594;13.526;2022-08-02T07:26:09;27.50;57.70
17364;DHT22;8799;43.594;13.526;2022-08-02T07:28:37;27.50;57.90
17364;DHT22;8799;43.594;13.526;2022-08-02T07:31:07;27.50;58.30
17364;DHT22;8799;43.594;13.526;2022-08-02T07:33:35;27.50;58.20
17364;DHT22;8799;43.594;13.526;2022-08-02T07:36:03;27.60;58.30
17364;DHT22;8799;43.594;13.526;2022-08-02T07:38:31;27.60;58.40
17364;DHT22;8799;43.594;13.526;2022-08-02T07:40:59;27.60;58.30
17364;DHT22;8799;43.594;13.526;2022-08-02T07:43:27;27.60;58.20
17364;DHT22;8799;43.594;13.526;2022-08-02T07:45:54;27.60;58.40
17364;DHT22;8799;43.594;13.526;2022-08-02T07:48:23;27.50;59.00
17364;DHT22;8799;43.594;13.526;2022-08-02T07:50:51;27.50;59.80
17364;DHT22;8799;43.594;13.526;2022-08-02T07:53:18;27.50;60.80
17364;DHT22;8799;43.594;13.526;2022-08-02T07:55:50;27.50;62.90
17364;DHT22;8799;43.594;13.526;2022-08-02T07:58:18;27.50;63.90
17364;DHT22;8799;43.594;13.526;2022-08-02T08:00:45;27.50;64.50
17364;DHT22;8799;43.594;13.526;2022-08-02T08:03:13;27.50;66.10
17364;DHT22;8799;43.594;13.526;2022-08-02T08:05:43;27.50;66.20
17364;DHT22;8799;43.594;13.526;2022-08-02T08:08:10;27.50;66.50
17364;DHT22;8799;43.594;13.526;2022-08-02T08:10:39;27.50;67.00
17364;DHT22;8799;43.594;13.526;2022-08-02T08:13:06;27.40;66.80
17364;DHT22;8799;43.594;13.526;2022-08-02T08:15:34;27.50;67.50
17364;DHT22;8799;43.594;13.526;2022-08-02T08:18:02;27.40;67.80
17364;DHT22;8799;43.594;13.526;2022-08-02T08:20:29;27.50;68.50
17364;DHT22;8799;43.594;13.526;2022-08-02T08:23:03;27.50;68.90
17364;DHT22;8799;43.594;13.526;2022-08-02T08:25:31;27.50;69.20
17364;DHT22;8799;43.594;13.526;2022-08-02T08:27:59;27.50;70.20
17364;DHT22;8799;43.594;13.526;2022-08-02T08:30:27;27.50;70.40
17364;DHT22;8799;43.594;13.526;2022-08-02T08:32:54;27.50;71.50
17364;DHT22;8799;43.594;13.526;2022-08-02T08:35:22;27.50;72.40
17364;DHT22;8799;43.594;13.526;2022-08-02T08:37:50;27.50;73.50
17364;DHT22;8799;43.594;13.526;2022-08-02T08:40:24;27.50;73.80
17364;DHT22;8799;43.594;13.526;2022-08-02T08:42:52;27.50;73.90
17364;DHT22;8799;43.594;13.526;2022-08-02T08:45:20;27.50;74.20
17364;DHT22;8799;43.594;13.526;2022-08-02T08:47:55;27.50;75.20
17364;DHT22;8799;43.594;13.526;2022-08-02T08:50:29;27.50;75.90
17364;DHT22;8799;43.594;13.526;2022-08-02T08:53:02;27.50;75.90
17364;DHT22;8799;43.594;13.526;2022-08-02T08:55:33;27.50;76.60
17364;DHT22;8799;43.594;13.526;2022-08-02T08:58:02;27.50;77.10
17364;DHT22;8799;43.594;13.526;2022-08-02T09:00:32;27.50;78.60
17364;DHT22;8799;43.594;13.526;2022-08-02T09:03:01;27.60;78.10
17364;DHT22;8799;43.594;13.526;2022-08-02T09:05:29;27.60;78.80
17364;DHT22;8799;43.594;13.526;2022-08-02T09:07:56;27.60;78.70
17364;DHT22;8799;43.594;13.526;2022-08-02T09:10:37;27.60;79.60
17364;DHT22;8799;43.594;13.526;2022-08-02T09:13:11;27.60;79.70
17364;DHT22;8799;43.594;13.526;2022-08-02T09:15:40;27.60;79.80
17364;DHT22;8799;43.594;13.526;2022-08-02T09:18:08;27.60;80.40
17364;DHT22;8799;43.594;13.526;2022-08-02T09:20:51;27.60;80.30
17364;DHT22;8799;43.594;13.526;2022-08-02T09:23:20;27.60;80.30
17364;DHT22;8799;43.594;13.526;2022-08-02T09:26:00;27.60;80.30
17364;DHT22;8799;43.594;13.526;2022-08-02T09:28:29;27.60;80.20
17364;DHT22;8799;43.594;13.526;2022-08-02T09:31:03;27.60;80.10
17364;DHT22;8799;43.594;13.526;2022-08-02T09:33:31;27.60;80.10
17364;DHT22;8799;43.594;13.526;2022-08-02T09:36:00;27.60;80.40
17364;DHT22;8799;43.594;13.526;2022-08-02T09:38:27;27.60;80.70
17364;DHT22;8799;43.594;13.526;2022-08-02T09:40:55;27.60;81.10
17364;DHT22;8799;43.594;13.526;2022-08-02T09:43:36;27.60;80.80
17364;DHT22;8799;43.594;13.526;2022-08-02T09:46:12;27.60;81.20
17364;DHT22;8799;43.594;13.526;2022-08-02T09:48:50;27.60;81.90
17364;DHT22;8799;43.594;13.526;2022-08-02T09:51:37;27.60;82.10
17364;DHT22;8799;43.594;13.526;2022-08-02T09:54:07;27.60;82.80
17364;DHT22;8799;43.594;13.526;2022-08-02T09:56:46;27.60;83.30
17364;DHT22;8799;43.594;13.526;2022-08-02T09:59:16;27.60;83.30
17364;DHT22;8799;43.594;13.526;2022-08-02T10:01:47;27.60;83.60
17364;DHT22;8799;43.594;13.526;2022-08-02T10:04:18;27.60;84.10
17364;DHT22;8799;43.594;13.526;2022-08-02T10:06:47;27.60;83.60
17364;DHT22;8799;43.594;13.526;2022-08-02T10:09:16;27.60;83.70
17364;DHT22;8799;43.594;13.526;2022-08-02T10:11:44;27.70;83.10
17364;DHT22;8799;43.594;13.526;2022-08-02T10:14:12;27.70;82.50
17364;DHT22;8799;43.594;13.526;2022-08-02T10:16:42;27.70;82.50
17364;DHT22;8799;43.594;13.526;2022-08-02T10:19:10;27.70;82.30
17364;DHT22;8799;43.594;13.526;2022-08-02T10:21:43;27.60;82.40
17364;DHT22;8799;43.594;13.526;2022-08-02T10:24:14;27.70;82.30
17364;DHT22;8799;43.594;13.526;2022-08-02T10:26:44;27.70;82.30
17364;DHT22;8799;43.594;13.526;2022-08-02T10:29:15;27.70;83.30
17364;DHT22;8799;43.594;13.526;2022-08-02T10:31:48;27.70;83.40
17364;DHT22;8799;43.594;13.526;2022-08-02T10:34:19;27.70;83.90
17364;DHT22;8799;43.594;13.526;2022-08-02T10:36:48;27.70;84.80
17364;DHT22;8799;43.594;13.526;2022-08-02T10:39:16;27.70;84.80
17364;DHT22;8799;43.594;13.526;2022-08-02T10:41:46;27.80;84.80
17364;DHT22;8799;43.594;13.526;2022-08-02T10:44:25;27.80;85.50
17364;DHT22;8799;43.594;13.526;2022-08-02T10:47:18;27.80;85.50
17364;DHT22;8799;43.594;13.526;2022-08-02T10:49:48;27.80;84.40
17364;DHT22;8799;43.594;13.526;2022-08-02T10:52:16;27.70;84.50
17364;DHT22;8799;43.594;13.526;2022-08-02T10:54:50;27.80;85.90
17364;DHT22;8799;43.594;13.526;2022-08-02T10:57:22;27.80;86.60
17364;DHT22;8799;43.594;13.526;2022-08-02T10:59:53;27.80;86.50
17364;DHT22;8799;43.594;13.526;2022-08-02T11:02:38;27.70;87.10
17364;DHT22;8799;43.594;13.526;2022-08-02T11:05:12;27.80;86.40
17364;DHT22;8799;43.594;13.526;2022-08-02T11:07:42;27.80;86.70
17364;DHT22;8799;43.594;13.526;2022-08-02T11:13:08;27.80;86.50
17364;DHT22;8799;43.594;13.526;2022-08-02T11:15:51;27.80;86.50
17364;DHT22;8799;43.594;13.526;2022-08-02T11:18:21;27.80;88.60
17364;DHT22;8799;43.594;13.526;2022-08-02T11:21:19;27.80;88.90
17364;DHT22;8799;43.594;13.526;2022-08-02T11:23:47;27.80;90.80
17364;DHT22;8799;43.594;13.526;2022-08-02T11:29:21;27.80;92.80
17364;DHT22;8799;43.594;13.526;2022-08-02T11:31:58;27.80;93.20
17364;DHT22;8799;43.594;13.526;2022-08-02T11:34:28;27.80;92.60
17364;DHT22;8799;43.594;13.526;2022-08-02T11:36:57;27.80;93.90
17364;DHT22;8799;43.594;13.526;2022-08-02T11:39:25;27.80;93.80
17364;DHT22;8799;43.594;13.526;2022-08-02T11:41:54;27.80;94.50
17364;DHT22;8799;43.594;13.526;2022-08-02T11:44:27;27.80;94.40
17364;DHT22;8799;43.594;13.526;2022-08-02T11:47:00;27.90;94.50
17364;DHT22;8799;43.594;13.526;2022-08-02T11:49:31;27.90;94.40
17364;DHT22;8799;43.594;13.526;2022-08-02T11:52:00;27.90;94.00
17364;DHT22;8799;43.594;13.526;2022-08-02T11:54:32;27.80;94.50
17364;DHT22;8799;43.594;13.526;2022-08-02T11:57:10;27.80;94.50
17364;DHT22;8799;43.594;13.526;2022-08-02T11:59:38;27.80;93.00
17364;DHT22;8799;43.594;13.526;2022-08-02T12:02:06;27.80;91.60
17364;DHT22;8799;43.594;13.526;2022-08-02T12:04:36;27.80;91.90
17364;DHT22;8799;43.594;13.526;2022-08-02T12:07:05;27.80;93.00
17364;DHT22;8799;43.594;13.526;2022-08-02T12:09:34;27.80;92.60
17364;DHT22;8799;43.594;13.526;2022-08-02T12:12:03;27.80;92.80
17364;DHT22;8799;43.594;13.526;2022-08-02T12:14:31;27.80;93.10
17364;DHT22;8799;43.594;13.526;2022-08-02T12:16:59;27.80;92.60
17364;DHT22;8799;43.594;13.526;2022-08-02T12:19:46;27.80;93.00
17364;DHT22;8799;43.594;13.526;2022-08-02T12:22:17;27.80;92.90
17364;DHT22;8799;43.594;13.526;2022-08-02T12:24:46;27.80;92.90
17364;DHT22;8799;43.594;13.526;2022-08-02T12:27:32;27.80;93.10
17364;DHT22;8799;43.594;13.526;2022-08-02T12:30:02;27.80;93.20
17364;DHT22;8799;43.594;13.526;2022-08-02T12:32:30;27.90;92.90
17364;DHT22;8799;43.594;13.526;2022-08-02T12:35:04;27.90;92.10
17364;DHT22;8799;43.594;13.526;2022-08-02T12:37:33;27.90;92.00
17364;DHT22;8799;43.594;13.526;2022-08-02T12:40:19;27.90;91.30
17364;DHT22;8799;43.594;13.526;2022-08-02T12:42:49;27.90;91.70
17364;DHT22;8799;43.594;13.526;2022-08-02T12:45:17;27.90;91.40
17364;DHT22;8799;43.594;13.526;2022-08-02T12:47:46;27.90;91.20
17364;DHT22;8799;43.594;13.526;2022-08-02T12:50:18;27.90;91.30
17364;DHT22;8799;43.594;13.526;2022-08-02T12:52:46;27.90;91.00
17364;DHT22;8799;43.594;13.526;2022-08-02T12:55:16;27.90;90.60
17364;DHT22;8799;43.594;13.526;2022-08-02T12:57:51;27.90;89.80
17364;DHT22;8799;43.594;13.526;2022-08-02T13:00:23;28.00;90.00
17364;DHT22;8799;43.594;13.526;2022-08-02T13:02:51;28.00;89.50
17364;DHT22;8799;43.594;13.526;2022-08-02T13:05:20;28.00;89.50
17364;DHT22;8799;43.594;13.526;2022-08-02T13:07:48;28.00;90.00
17364;DHT22;8799;43.594;13.526;2022-08-02T13:10:17;28.00;89.60
17364;DHT22;8799;43.594;13.526;2022-08-02T13:12:44;27.90;88.20
17364;DHT22;8799;43.594;13.526;2022-08-02T13:15:12;28.00;88.20
17364;DHT22;8799;43.594;13.526;2022-08-02T13:17:40;28.00;87.70
17364;DHT22;8799;43.594;13.526;2022-08-02T13:20:08;28.00;87.70
17364;DHT22;8799;43.594;13.526;2022-08-02T13:22:38;28.00;88.50
17364;DHT22;8799;43.594;13.526;2022-08-02T13:25:06;28.00;88.50
17364;DHT22;8799;43.594;13.526;2022-08-02T13:27:34;28.00;88.50
17364;DHT22;8799;43.594;13.526;2022-08-02T13:30:04;28.00;88.50
17364;DHT22;8799;43.594;13.526;2022-08-02T13:32:32;28.00;88.30
17364;DHT22;8799;43.594;13.526;2022-08-02T13:35:00;28.10;87.90
17364;DHT22;8799;43.594;13.526;2022-08-02T13:37:28;28.20;87.30
17364;DHT22;8799;43.594;13.526;2022-08-02T13:39:57;28.20;86.80
17364;DHT22;8799;43.594;13.526;2022-08-02T13:42:25;28.20;86.10
17364;DHT22;8799;43.594;13.526;2022-08-02T13:44:53;28.20;86.70
17364;DHT22;8799;43.594;13.526;2022-08-02T13:47:21;28.30;86.70
17364;DHT22;8799;43.594;13.526;2022-08-02T13:49:49;28.40;86.10
17364;DHT22;8799;43.594;13.526;2022-08-02T13:52:17;28.40;85.70
17364;DHT22;8799;43.594;13.526;2022-08-02T13:54:44;28.40;84.50
17364;DHT22;8799;43.594;13.526;2022-08-02T13:57:14;28.50;83.80
17364;DHT22;8799;43.594;13.526;2022-08-02T13:59:42;28.50;83.30
17364;DHT22;8799;43.594;13.526;2022-08-02T14:02:10;28.50;82.80
17364;DHT22;8799;43.594;13.526;2022-08-02T14:04:37;28.40;82.30
17364;DHT22;8799;43.594;13.526;2022-08-02T14:07:05;28.30;82.80
17364;DHT22;8799;43.594;13.526;2022-08-02T14:09:32;28.30;83.00
17364;DHT22;8799;43.594;13.526;2022-08-02T14:12:00;28.20;83.10
17364;DHT22;8799;43.594;13.526;2022-08-02T14:14:30;28.20;83.00
17364;DHT22;8799;43.594;13.526;2022-08-02T14:16:58;28.20;82.70
17364;DHT22;8799;43.594;13.526;2022-08-02T14:19:26;28.10;82.70
17364;DHT22;8799;43.594;13.526;2022-08-02T14:21:54;28.10;82.70
17364;DHT22;8799;43.594;13.526;2022-08-02T14:24:21;28.10;83.10
17364;DHT22;8799;43.594;13.526;2022-08-02T14:26:50;28.10;83.20
17364;DHT22;8799;43.594;13.526;2022-08-02T14:29:17;28.10;83.10
17364;DHT22;8799;43.594;13.526;2022-08-02T14:31:47;28.10;83.00
17364;DHT22;8799;43.594;13.526;2022-08-02T14:34:14;28.10;82.80
17364;DHT22;8799;43.594;13.526;2022-08-02T14:36:42;28.10;82.50
17364;DHT22;8799;43.594;13.526;2022-08-02T14:39:10;28.00;82.60
17364;DHT22;8799;43.594;13.526;2022-08-02T14:41:37;28.10;82.40
17364;DHT22;8799;43.594;13.526;2022-08-02T14:44:05;28.00;82.00
17364;DHT22;8799;43.594;13.526;2022-08-02T14:46:35;28.00;82.00
17364;DHT22;8799;43.594;13.526;2022-08-02T14:49:04;28.00;81.80
17364;DHT22;8799;43.594;13.526;2022-08-02T14:51:33;28.00;81.70
17364;DHT22;8799;43.594;13.526;2022-08-02T14:54:03;28.00;81.80
17364;DHT22;8799;43.594;13.526;2022-08-02T14:56:30;28.00;82.00
17364;DHT22;8799;43.594;13.526;2022-08-02T14:58:58;28.00;81.90
17364;DHT22;8799;43.594;13.526;2022-08-02T15:01:26;28.00;81.90
17364;DHT22;8799;43.594;13.526;2022-08-02T15:03:53;28.00;81.70
17364;DHT22;8799;43.594;13.526;2022-08-02T15:06:23;28.00;81.50
17364;DHT22;8799;43.594;13.526;2022-08-02T15:08:52;28.00;81.50
17364;DHT22;8799;43.594;13.526;2022-08-02T15:11:20;28.00;81.40
17364;DHT22;8799;43.594;13.526;2022-08-02T15:13:48;28.00;81.30
17364;DHT22;8799;43.594;13.526;2022-08-02T15:16:15;28.00;81.20
17364;DHT22;8799;43.594;13.526;2022-08-02T15:18:44;28.00;81.10
17364;DHT22;8799;43.594;13.526;2022-08-02T15:21:15;28.00;80.60
17364;DHT22;8799;43.594;13.526;2022-08-02T15:23:45;28.00;79.70
17364;DHT22;8799;43.594;13.526;2022-08-02T15:26:12;28.00;79.30
17364;DHT22;8799;43.594;13.526;2022-08-02T15:28:40;28.00;78.90
17364;DHT22;8799;43.594;13.526;2022-08-02T15:31:09;28.00;78.20
17364;DHT22;8799;43.594;13.526;2022-08-02T15:33:36;28.00;77.80
17364;DHT22;8799;43.594;13.526;2022-08-02T15:36:05;28.00;77.80
17364;DHT22;8799;43.594;13.526;2022-08-02T15:38:33;28.00;77.70
17364;DHT22;8799;43.594;13.526;2022-08-02T15:41:03;28.00;78.00
17364;DHT22;8799;43.594;13.526;2022-08-02T15:43:30;28.00;78.10
17364;DHT22;8799;43.594;13.526;2022-08-02T15:46:01;28.00;78.40
17364;DHT22;8799;43.594;13.526;2022-08-02T15:48:28;28.00;78.20
17364;DHT22;8799;43.594;13.526;2022-08-02T15:50:55;28.00;78.10
17364;DHT22;8799;43.594;13.526;2022-08-02T15:53:23;28.00;77.90
17364;DHT22;8799;43.594;13.526;2022-08-02T15:55:51;28.00;77.70